sensor_id;sensor_type;location;lat;lon;timestamp;temperature;humidity
20418;DHT22;10368;51.436;6.774;2023-07-02T01:47:02;18.10;99.90
20418;DHT22;10368;51.436;6.774;2023-07-02T01:49:29;17.00;99.90
20418;DHT22;10368;51.436;6.774;2023-07-02T01:51:57;16.90;99.90
20418;DHT22;10368;51.436;6.774;2023-07-02T01:54:26;16.90;99.90
20418;DHT22;10368;51.436;6.774;2023-07-02T01:56:56;16.90;99.90
20418;DHT22;10368;51.436;6.774;2023-07-02T01:59:24;16.90;99.90
20418;DHT22;10368;51.436;6.774;2023-07-02T02:01:51;16.90;99.90
20418;DHT22;10368;51.436;6.774;2023-07-02T02:04:18;16.90;99.90
20418;DHT22;10368;51.436;6.774;2023-07-02T02:06:45;16.80;99.90
20418;DHT22;10368;51.436;6.774;2023-07-02T02:09:12;16.80;99.90
20418;DHT22;10368;51.436;6.774;2023-07-02T02:11:45;16.80;99.90
20418;DHT22;10368;51.436;6.774;2023-07-02T02:14:12;16.80;99.90
20418;DHT22;10368;51.436;6.774;2023-07-02T02:16:39;16.80;99.90
20418;DHT22;10368;51.436;6.774;2023-07-02T02:19:06;16.80;99.90
20418;DHT22;10368;51.436;6.774;2023-07-02T02:21:33;16.80;99.90
20418;DHT22;10368;51.436;6.774;2023-07-02T02:24:00;16.70;99.90
20418;DHT22;10368;51.436;6.774;2023-07-02T02:26:27;16.70;99.90
20418;DHT22;10368;51.436;6.774;2023-07-02T02:28:54;16.70;99.90
20418;DHT22;10368;51.436;6.774;2023-07-02T02:31:21;16.70;99.90
20418;DHT22;10368;51.436;6.774;2023-07-02T02:33:48;16.70;99.90
20418;DHT22;10368;51.436;6.774;2023-07-02T02:36:15;16.70;99.90
20418;DHT22;10368;51.436;6.774;2023-07-02T02:38:43;16.70;99.90
20418;DHT22;10368;51.436;6.774;2023-07-02T02:41:10;16.70;99.90
20418;DHT22;10368;51.436;6.774;2023-07-02T02:43:37;16.60;99.90
20418;DHT22;10368;51.436;6.774;2023-07-02T02:46:07;16.70;99.90
20418;DHT22;10368;51.436;6.774;2023-07-02T02:48:34;16.70;99.90
20418;DHT22;10368;51.436;6.774;2023-07-02T02:51:01;16.60;99.90
20418;DHT22;10368;51.436;6.774;2023-07-02T02:53:28;16.60;99.90
20418;DHT22;10368;51.436;6.774;2023-07-02T02:55:55;16.60;99.90
20418;DHT22;10368;51.436;6.774;2023-07-02T02:58:22;16.60;99.90
20418;DHT22;10368;51.436;6.774;2023-07-02T03:00:49;16.60;99.90
20418;DHT22;10368;51.436;6.774;2023-07-02T03:03:18;16.60;99.90
20418;DHT22;10368;51.436;6.774;2023-07-02T03:05:47;16.50;99.90
20418;DHT22;10368;51.436;6.774;2023-07-02T03:08:15;16.50;99.90
20418;DHT22;10368;51.436;6.774;2023-07-02T03:10:41;16.50;99.90
20418;DHT22;10368;51.436;6.774;2023-07-02T03:13:08;16.50;99.90
20418;DHT22;10368;51.436;6.774;2023-07-02T03:15:35;16.40;99.90
20418;DHT22;10368;51.436;6.774;2023-07-02T03:18:02;16.50;99.90
20418;DHT22;10368;51.436;6.774;2023-07-02T03:20:29;16.40;99.90
20418;DHT22;10368;51.436;6.774;2023-07-02T03:22:56;16.40;99.90
20418;DHT22;10368;51.436;6.774;2023-07-02T03:25:23;16.40;99.90
20418;DHT22;10368;51.436;6.774;2023-07-02T03:27:50;16.40;99.90
20418;DHT22;10368;51.436;6.774;2023-07-02T03:30:17;16.40;99.90
20418;DHT22;10368;51.436;6.774;2023-07-02T03:32:45;16.40;99.90
20418;DHT22;10368;51.436;6.774;2023-07-02T03:35:12;16.40;99.90
20418;DHT22;10368;51.436;6.774;2023-07-02T03:37:38;16.30;99.90
20418;DHT22;10368;51.436;6.774;2023-07-02T03:40:09;16.40;99.90
20418;DHT22;10368;51.436;6.774;2023-07-02T03:42:36;16.40;99.90
20418;DHT22;10368;51.436;6.774;2023-07-02T03:45:03;16.40;99.90
20418;DHT22;10368;51.436;6.774;2023-07-02T03:47:30;16.40;99.90
20418;DHT22;10368;51.436;6.774;2023-07-02T03:49:57;16.40;99.90
20418;DHT22;10368;51.436;6.774;2023-07-02T03:52:24;16.40;99.90
20418;DHT22;10368;51.436;6.774;2023-07-02T03:54:51;16.40;99.90
20418;DHT22;10368;51.436;6.774;2023-07-02T03:57:18;16.40;99.90
20418;DHT22;10368;51.436;6.774;2023-07-02T03:59:45;16.40;99.90
20418;DHT22;10368;51.436;6.774;2023-07-02T04:02:12;16.40;99.90
20418;DHT22;10368;51.436;6.774;2023-07-02T04:04:38;16.40;99.90
20418;DHT22;10368;51.436;6.774;2023-07-02T04:07:05;16.40;99.90
20418;DHT22;10368;51.436;6.774;2023-07-02T04:09:32;16.40;99.90
20418;DHT22;10368;51.436;6.774;2023-07-02T04:12:03;16.40;99.90
20418;DHT22;10368;51.436;6.774;2023-07-02T04:14:30;16.40;99.90
20418;DHT22;10368;51.436;6.774;2023-07-02T04:16:57;16.40;99.90
20418;DHT22;10368;51.436;6.774;2023-07-02T04:19:24;16.40;99.90
20418;DHT22;10368;51.436;6.774;2023-07-02T04:21:51;16.40;99.90
20418;DHT22;10368;51.436;6.774;2023-07-02T04:24:18;16.40;99.90
20418;DHT22;10368;51.436;6.774;2023-07-02T04:26:45;16.40;99.90
20418;DHT22;10368;51.436;6.774;2023-07-02T04:29:32;16.40;99.90
20418;DHT22;10368;51.436;6.774;2023-07-02T04:31:59;16.40;99.90
20418;DHT22;10368;51.436;6.774;2023-07-02T04:34:26;16.40;99.90
20418;DHT22;10368;51.436;6.774;2023-07-02T04:36:52;16.40;99.90
20418;DHT22;10368;51.436;6.774;2023-07-02T04:39:20;16.50;99.90
20418;DHT22;10368;51.436;6.774;2023-07-02T04:41:47;16.50;99.90
20418;DHT22;10368;51.436;6.774;2023-07-02T04:44:15;16.50;99.90
20418;DHT22;10368;51.436;6.774;2023-07-02T04:46:42;16.50;99.90
20418;DHT22;10368;51.436;6.774;2023-07-02T04:49:10;16.50;99.90
20418;DHT22;10368;51.436;6.774;2023-07-02T04:51:37;16.50;99.90
20418;DHT22;10368;51.436;6.774;2023-07-02T04:54:04;16.50;99.90
20418;DHT22;10368;51.436;6.774;2023-07-02T04:56:31;16.60;99.90
20418;DHT22;10368;51.436;6.774;2023-07-02T04:58:58;16.60;99.90
20418;DHT22;10368;51.436;6.774;2023-07-02T05:01:27;16.60;99.90
20418;DHT22;10368;51.436;6.774;2023-07-02T05:03:54;16.60;99.90
20418;DHT22;10368;51.436;6.774;2023-07-02T05:06:21;16.60;99.90
20418;DHT22;10368;51.436;6.774;2023-07-02T05:08:48;16.70;99.90
20418;DHT22;10368;51.436;6.774;2023-07-02T05:11:15;16.70;99.90
20418;DHT22;10368;51.436;6.774;2023-07-02T05:13:42;16.70;99.90
20418;DHT22;10368;51.436;6.774;2023-07-02T05:16:08;16.60;99.90
20418;DHT22;10368;51.436;6.774;2023-07-02T05:18:37;16.60;99.90
20418;DHT22;10368;51.436;6.774;2023-07-02T05:21:04;16.60;99.90
20418;DHT22;10368;51.436;6.774;2023-07-02T05:23:30;16.60;99.90
20418;DHT22;10368;51.436;6.774;2023-07-02T05:25:57;16.60;99.90
20418;DHT22;10368;51.436;6.774;2023-07-02T05:28:25;16.60;99.90
20418;DHT22;10368;51.436;6.774;2023-07-02T05:30:51;16.60;99.90
20418;DHT22;10368;51.436;6.774;2023-07-02T05:33:20;16.60;99.90
20418;DHT22;10368;51.436;6.774;2023-07-02T05:35:48;16.60;99.90
20418;DHT22;10368;51.436;6.774;2023-07-02T05:38:17;16.70;99.90
20418;DHT22;10368;51.436;6.774;2023-07-02T05:40:44;16.60;99.90
20418;DHT22;10368;51.436;6.774;2023-07-02T05:43:11;16.60;99.90
20418;DHT22;10368;51.436;6.774;2023-07-02T05:45:38;16.60;99.90
20418;DHT22;10368;51.436;6.774;2023-07-02T05:48:05;16.60;99.90
20418;DHT22;10368;51.436;6.774;2023-07-02T05:50:32;16.60;99.90
20418;DHT22;10368;51.436;6.774;2023-07-02T05:52:59;16.70;99.90
20418;DHT22;10368;51.436;6.774;2023-07-02T05:55:26;16.70;99.90
20418;DHT22;10368;51.436;6.774;2023-07-02T05:57:53;16.70;99.90
20418;DHT22;10368;51.436;6.774;2023-07-02T06:00:21;16.70;99.90
20418;DHT22;10368;51.436;6.774;2023-07-02T06:02:48;16.70;99.90
20418;DHT22;10368;51.436;6.774;2023-07-02T06:05:15;16.80;99.90
20418;DHT22;10368;51.436;6.774;2023-07-02T06:07:42;16.80;99.90
20418;DHT22;10368;51.436;6.774;2023-07-02T06:10:09;16.90;99.90
20418;DHT22;10368;51.436;6.774;2023-07-02T06:12:36;16.90;99.90
20418;DHT22;10368;51.436;6.774;2023-07-02T06:15:03;16.90;99.90
20418;DHT22;10368;51.436;6.774;2023-07-02T06:17:30;17.00;99.90
20418;DHT22;10368;51.436;6.774;2023-07-02T06:20:01;17.10;99.90
20418;DHT22;10368;51.436;6.774;2023-07-02T06:22:28;17.10;99.90
20418;DHT22;10368;51.436;6.774;2023-07-02T06:24:55;17.10;99.90
20418;DHT22;10368;51.436;6.774;2023-07-02T06:27:22;17.00;99.90
20418;DHT22;10368;51.436;6.774;2023-07-02T06:29:48;17.10;99.90
20418;DHT22;10368;51.436;6.774;2023-07-02T06:32:17;17.20;99.90
20418;DHT22;10368;51.436;6.774;2023-07-02T06:34:44;17.20;99.90
20418;DHT22;10368;51.436;6.774;2023-07-02T06:37:12;17.20;99.90
20418;DHT22;10368;51.436;6.774;2023-07-02T06:39:39;17.40;99.90
20418;DHT22;10368;51.436;6.774;2023-07-02T06:42:05;17.50;99.90
20418;DHT22;10368;51.436;6.774;2023-07-02T06:44:32;17.50;99.90
20418;DHT22;10368;51.436;6.774;2023-07-02T06:46:59;17.50;99.90
20418;DHT22;10368;51.436;6.774;2023-07-02T06:49:26;17.40;99.90
20418;DHT22;10368;51.436;6.774;2023-07-02T06:51:53;17.40;99.90
20418;DHT22;10368;51.436;6.774;2023-07-02T06:54:20;17.40;99.90
20418;DHT22;10368;51.436;6.774;2023-07-02T06:56:46;17.50;99.90
20418;DHT22;10368;51.436;6.774;2023-07-02T06:59:22;17.50;99.90
20418;DHT22;10368;51.436;6.774;2023-07-02T07:01:49;17.60;99.90
20418;DHT22;10368;51.436;6.774;2023-07-02T07:04:16;17.60;99.90
20418;DHT22;10368;51.436;6.774;2023-07-02T07:06:43;17.70;99.90
20418;DHT22;10368;51.436;6.774;2023-07-02T07:09:10;17.70;99.90
20418;DHT22;10368;51.436;6.774;2023-07-02T07:11:37;17.80;99.90
20418;DHT22;10368;51.436;6.774;2023-07-02T07:14:04;17.60;99.90
20418;DHT22;10368;51.436;6.774;2023-07-02T07:16:31;17.70;99.90
20418;DHT22;10368;51.436;6.774;2023-07-02T07:18:58;17.80;99.90
20418;DHT22;10368;51.436;6.774;2023-07-02T07:21:25;17.70;99.90
20418;DHT22;10368;51.436;6.774;2023-07-02T07:23:51;17.80;99.90
20418;DHT22;10368;51.436;6.774;2023-07-02T07:26:18;18.00;99.90
20418;DHT22;10368;51.436;6.774;2023-07-02T07:28:45;18.20;99.90
20418;DHT22;10368;51.436;6.774;2023-07-02T07:31:12;18.30;99.90
20418;DHT22;10368;51.436;6.774;2023-07-02T07:33:39;18.40;99.90
20418;DHT22;10368;51.436;6.774;2023-07-02T07:36:06;18.40;99.90
20418;DHT22;10368;51.436;6.774;2023-07-02T07:38:33;18.40;99.90
20418;DHT22;10368;51.436;6.774;2023-07-02T07:40:59;18.50;99.80
20418;DHT22;10368;51.436;6.774;2023-07-02T07:43:26;18.40;98.70
20418;DHT22;10368;51.436;6.774;2023-07-02T07:45:53;18.40;99.10
20418;DHT22;10368;51.436;6.774;2023-07-02T07:48:21;18.30;99.70
20418;DHT22;10368;51.436;6.774;2023-07-02T07:50:48;18.40;99.90
20418;DHT22;10368;51.436;6.774;2023-07-02T07:53:16;18.40;99.80
20418;DHT22;10368;51.436;6.774;2023-07-02T07:55:42;18.60;99.90
20418;DHT22;10368;51.436;6.774;2023-07-02T07:58:09;18.70;98.90
20418;DHT22;10368;51.436;6.774;2023-07-02T08:00:36;18.80;98.00
20418;DHT22;10368;51.436;6.774;2023-07-02T08:03:04;18.80;96.60
20418;DHT22;10368;51.436;6.774;2023-07-02T08:05:31;18.80;95.10
20418;DHT22;10368;51.436;6.774;2023-07-02T08:07:58;18.80;94.20
20418;DHT22;10368;51.436;6.774;2023-07-02T08:10:25;18.70;94.50
20418;DHT22;10368;51.436;6.774;2023-07-02T08:12:52;18.70;93.90
20418;DHT22;10368;51.436;6.774;2023-07-02T08:15:19;18.80;93.40
20418;DHT22;10368;51.436;6.774;2023-07-02T08:17:46;18.70;93.30
20418;DHT22;10368;51.436;6.774;2023-07-02T08:20:13;18.70;92.50
20418;DHT22;10368;51.436;6.774;2023-07-02T08:22:40;18.80;92.10
20418;DHT22;10368;51.436;6.774;2023-07-02T08:25:07;18.90;93.10
20418;DHT22;10368;51.436;6.774;2023-07-02T08:27:34;18.90;92.40
20418;DHT22;10368;51.436;6.774;2023-07-02T08:30:02;18.70;92.30
20418;DHT22;10368;51.436;6.774;2023-07-02T08:32:29;18.90;93.10
20418;DHT22;10368;51.436;6.774;2023-07-02T08:34:56;18.80;92.00
20418;DHT22;10368;51.436;6.774;2023-07-02T08:37:23;18.70;91.70
20418;DHT22;10368;51.436;6.774;2023-07-02T08:39:50;18.60;87.40
20418;DHT22;10368;51.436;6.774;2023-07-02T08:42:16;18.80;87.40
20418;DHT22;10368;51.436;6.774;2023-07-02T08:44:46;18.80;86.50
20418;DHT22;10368;51.436;6.774;2023-07-02T08:47:14;18.80;85.50
20418;DHT22;10368;51.436;6.774;2023-07-02T08:49:42;18.80;85.50
20418;DHT22;10368;51.436;6.774;2023-07-02T08:52:10;18.60;85.30
20418;DHT22;10368;51.436;6.774;2023-07-02T08:54:37;18.70;86.20
20418;DHT22;10368;51.436;6.774;2023-07-02T08:57:04;18.80;88.60
20418;DHT22;10368;51.436;6.774;2023-07-02T08:59:32;18.70;88.50
20418;DHT22;10368;51.436;6.774;2023-07-02T09:01:59;18.90;89.80
20418;DHT22;10368;51.436;6.774;2023-07-02T09:04:26;19.10;89.80
20418;DHT22;10368;51.436;6.774;2023-07-02T09:07:09;19.10;90.60
20418;DHT22;10368;51.436;6.774;2023-07-02T09:09:47;19.20;90.60
20418;DHT22;10368;51.436;6.774;2023-07-02T09:12:25;19.00;90.60
20418;DHT22;10368;51.436;6.774;2023-07-02T09:15:05;19.00;90.50
20418;DHT22;10368;51.436;6.774;2023-07-02T09:17:37;19.10;90.70
20418;DHT22;10368;51.436;6.774;2023-07-02T09:20:05;19.40;91.10
20418;DHT22;10368;51.436;6.774;2023-07-02T09:22:35;19.70;90.20
20418;DHT22;10368;51.436;6.774;2023-07-02T09:25:03;19.80;90.40
20418;DHT22;10368;51.436;6.774;2023-07-02T09:27:37;19.90;90.80
20418;DHT22;10368;51.436;6.774;2023-07-02T09:30:13;19.80;90.20
20418;DHT22;10368;51.436;6.774;2023-07-02T09:32:40;19.80;90.90
20418;DHT22;10368;51.436;6.774;2023-07-02T09:35:08;19.70;90.80
20418;DHT22;10368;51.436;6.774;2023-07-02T09:37:35;19.80;91.60
20418;DHT22;10368;51.436;6.774;2023-07-02T09:40:03;19.90;90.40
20418;DHT22;10368;51.436;6.774;2023-07-02T09:42:35;19.60;90.40
20418;DHT22;10368;51.436;6.774;2023-07-02T09:45:03;19.70;90.40
20418;DHT22;10368;51.436;6.774;2023-07-02T09:47:32;19.70;90.80
20418;DHT22;10368;51.436;6.774;2023-07-02T09:50:05;19.60;91.10
20418;DHT22;10368;51.436;6.774;2023-07-02T09:52:33;19.70;91.40
20418;DHT22;10368;51.436;6.774;2023-07-02T09:55:01;19.50;88.80
20418;DHT22;10368;51.436;6.774;2023-07-02T09:57:28;19.50;88.20
20418;DHT22;10368;51.436;6.774;2023-07-02T10:00:02;19.50;88.00
20418;DHT22;10368;51.436;6.774;2023-07-02T10:02:29;19.40;87.70
20418;DHT22;10368;51.436;6.774;2023-07-02T10:04:56;19.50;86.70
20418;DHT22;10368;51.436;6.774;2023-07-02T10:07:29;19.70;86.20
20418;DHT22;10368;51.436;6.774;2023-07-02T10:09:56;19.80;84.60
20418;DHT22;10368;51.436;6.774;2023-07-02T10:12:27;19.90;84.40
20418;DHT22;10368;51.436;6.774;2023-07-02T10:14:56;20.00;83.70
20418;DHT22;10368;51.436;6.774;2023-07-02T10:17:30;20.00;83.40
20418;DHT22;10368;51.436;6.774;2023-07-02T10:20:00;20.20;82.60
20418;DHT22;10368;51.436;6.774;2023-07-02T10:22:27;20.20;80.90
20418;DHT22;10368;51.436;6.774;2023-07-02T10:24:58;20.10;80.60
20418;DHT22;10368;51.436;6.774;2023-07-02T10:27:35;20.30;79.60
20418;DHT22;10368;51.436;6.774;2023-07-02T10:30:03;20.60;78.80
20418;DHT22;10368;51.436;6.774;2023-07-02T10:32:31;20.80;77.70
20418;DHT22;10368;51.436;6.774;2023-07-02T10:35:21;20.70;78.60
20418;DHT22;10368;51.436;6.774;2023-07-02T10:37:47;20.50;78.40
20418;DHT22;10368;51.436;6.774;2023-07-02T10:40:14;20.50;77.90
20418;DHT22;10368;51.436;6.774;2023-07-02T10:42:45;20.50;79.10
20418;DHT22;10368;51.436;6.774;2023-07-02T10:45:13;20.60;79.40
20418;DHT22;10368;51.436;6.774;2023-07-02T10:47:41;20.50;78.70
20418;DHT22;10368;51.436;6.774;2023-07-02T10:50:34;20.60;79.10
20418;DHT22;10368;51.436;6.774;2023-07-02T10:53:03;20.60;78.50
20418;DHT22;10368;51.436;6.774;2023-07-02T10:55:30;20.30;78.60
20418;DHT22;10368;51.436;6.774;2023-07-02T10:58:08;20.20;78.70
20418;DHT22;10368;51.436;6.774;2023-07-02T11:00:50;20.20;78.80
20418;DHT22;10368;51.436;6.774;2023-07-02T11:03:22;20.00;79.00
20418;DHT22;10368;51.436;6.774;2023-07-02T11:05:50;20.40;78.70
20418;DHT22;10368;51.436;6.774;2023-07-02T11:08:18;20.60;76.30
20418;DHT22;10368;51.436;6.774;2023-07-02T11:10:48;20.70;76.80
20418;DHT22;10368;51.436;6.774;2023-07-02T11:13:21;21.00;75.20
20418;DHT22;10368;51.436;6.774;2023-07-02T11:15:48;21.20;71.50
20418;DHT22;10368;51.436;6.774;2023-07-02T11:18:17;21.30;70.70
20418;DHT22;10368;51.436;6.774;2023-07-02T11:20:46;21.30;69.90
20418;DHT22;10368;51.436;6.774;2023-07-02T11:23:21;21.20;68.50
20418;DHT22;10368;51.436;6.774;2023-07-02T11:25:58;20.80;67.50
20418;DHT22;10368;51.436;6.774;2023-07-02T11:28:27;20.90;66.50
20418;DHT22;10368;51.436;6.774;2023-07-02T11:30:55;21.20;66.40
20418;DHT22;10368;51.436;6.774;2023-07-02T11:33:36;21.20;63.20
20418;DHT22;10368;51.436;6.774;2023-07-02T11:36:04;22.00;62.50
20418;DHT22;10368;51.436;6.774;2023-07-02T11:38:32;22.20;65.90
20418;DHT22;10368;51.436;6.774;2023-07-02T11:40:59;21.70;62.40
20418;DHT22;10368;51.436;6.774;2023-07-02T11:43:26;21.90;61.90
20418;DHT22;10368;51.436;6.774;2023-07-02T11:45:53;21.40;63.10
20418;DHT22;10368;51.436;6.774;2023-07-02T11:48:20;21.70;62.80
20418;DHT22;10368;51.436;6.774;2023-07-02T11:50:47;21.60;63.50
20418;DHT22;10368;51.436;6.774;2023-07-02T11:53:13;21.50;63.60
20418;DHT22;10368;51.436;6.774;2023-07-02T11:55:40;21.60;64.80
20418;DHT22;10368;51.436;6.774;2023-07-02T11:58:07;21.70;64.80
20418;DHT22;10368;51.436;6.774;2023-07-02T12:00:34;21.70;64.70
20418;DHT22;10368;51.436;6.774;2023-07-02T12:03:01;21.40;65.30
20418;DHT22;10368;51.436;6.774;2023-07-02T12:05:28;21.10;66.80
20418;DHT22;10368;51.436;6.774;2023-07-02T12:07:55;21.10;67.80
20418;DHT22;10368;51.436;6.774;2023-07-02T12:10:22;21.40;66.90
20418;DHT22;10368;51.436;6.774;2023-07-02T12:12:48;21.40;66.40
20418;DHT22;10368;51.436;6.774;2023-07-02T12:15:15;21.30;66.80
20418;DHT22;10368;51.436;6.774;2023-07-02T12:17:42;21.50;67.30
20418;DHT22;10368;51.436;6.774;2023-07-02T12:20:09;21.90;65.60
20418;DHT22;10368;51.436;6.774;2023-07-02T18:25:30;23.10;64.20
20418;DHT22;10368;51.436;6.774;2023-07-02T18:28:02;21.50;68.40
20418;DHT22;10368;51.436;6.774;2023-07-02T18:30:29;21.50;69.20
20418;DHT22;10368;51.436;6.774;2023-07-02T18:32:56;21.30;69.70
20418;DHT22;10368;51.436;6.774;2023-07-02T18:35:23;21.20;69.80
20418;DHT22;10368;51.436;6.774;2023-07-02T18:37:51;21.20;70.60
20418;DHT22;10368;51.436;6.774;2023-07-02T18:40:18;21.20;71.00
20418;DHT22;10368;51.436;6.774;2023-07-02T18:42:48;21.30;70.70
20418;DHT22;10368;51.436;6.774;2023-07-02T18:45:16;21.10;70.90
20418;DHT22;10368;51.436;6.774;2023-07-02T18:47:43;21.10;71.30
20418;DHT22;10368;51.436;6.774;2023-07-02T18:50:11;21.10;71.70
20418;DHT22;10368;51.436;6.774;2023-07-02T18:52:44;21.20;71.60
20418;DHT22;10368;51.436;6.774;2023-07-02T18:55:13;21.10;71.70
20418;DHT22;10368;51.436;6.774;2023-07-02T18:57:40;20.90;72.40
20418;DHT22;10368;51.436;6.774;2023-07-02T19:00:08;21.00;72.50
20418;DHT22;10368;51.436;6.774;2023-07-02T19:02:36;20.90;72.50
20418;DHT22;10368;51.436;6.774;2023-07-02T19:05:06;20.90;72.70
20418;DHT22;10368;51.436;6.774;2023-07-02T19:07:34;20.90;73.30
20418;DHT22;10368;51.436;6.774;2023-07-02T19:10:00;20.80;73.20
20418;DHT22;10368;51.436;6.774;2023-07-02T19:12:28;20.90;74.10
20418;DHT22;10368;51.436;6.774;2023-07-02T19:14:57;21.00;75.20
20418;DHT22;10368;51.436;6.774;2023-07-02T19:17:24;20.80;74.10
20418;DHT22;10368;51.436;6.774;2023-07-02T19:19:51;20.70;74.40
20418;DHT22;10368;51.436;6.774;2023-07-02T19:22:19;20.60;74.90
20418;DHT22;10368;51.436;6.774;2023-07-02T19:24:46;20.70;76.40
20418;DHT22;10368;51.436;6.774;2023-07-02T19:27:14;20.60;75.30
20418;DHT22;10368;51.436;6.774;2023-07-02T19:29:42;20.60;76.50
20418;DHT22;10368;51.436;6.774;2023-07-02T19:32:09;20.60;75.30
20418;DHT22;10368;51.436;6.774;2023-07-02T19:34:36;20.50;75.90
20418;DHT22;10368;51.436;6.774;2023-07-02T19:37:03;20.60;76.20
20418;DHT22;10368;51.436;6.774;2023-07-02T19:39:32;20.50;76.70
20418;DHT22;10368;51.436;6.774;2023-07-02T19:42:00;20.50;76.70
20418;DHT22;10368;51.436;6.774;2023-07-02T19:44:27;20.50;77.00
20418;DHT22;10368;51.436;6.774;2023-07-02T19:46:54;20.50;76.70
20418;DHT22;10368;51.436;6.774;2023-07-02T19:49:21;20.60;77.40
20418;DHT22;10368;51.436;6.774;2023-07-02T19:51:48;20.60;76.60
20418;DHT22;10368;51.436;6.774;2023-07-02T19:54:18;20.60;77.60
20418;DHT22;10368;51.436;6.774;2023-07-02T19:56:45;20.50;77.10
20418;DHT22;10368;51.436;6.774;2023-07-02T19:59:16;20.50;77.30
20418;DHT22;10368;51.436;6.774;2023-07-02T20:01:43;20.40;77.50
20418;DHT22;10368;51.436;6.774;2023-07-02T20:04:18;20.30;78.50
20418;DHT22;10368;51.436;6.774;2023-07-02T20:06:46;20.30;79.00
20418;DHT22;10368;51.436;6.774;2023-07-02T20:09:14;20.10;78.90
20418;DHT22;10368;51.436;6.774;2023-07-02T20:11:40;19.90;77.00
20418;DHT22;10368;51.436;6.774;2023-07-02T20:14:07;19.80;76.30
20418;DHT22;10368;51.436;6.774;2023-07-02T20:16:34;19.70;76.40
20418;DHT22;10368;51.436;6.774;2023-07-02T20:19:01;19.70;77.50
20418;DHT22;10368;51.436;6.774;2023-07-02T20:21:29;19.70;76.60
20418;DHT22;10368;51.436;6.774;2023-07-02T20:23:56;19.60;76.60
20418;DHT22;10368;51.436;6.774;2023-07-02T20:26:23;19.60;77.00
20418;DHT22;10368;51.436;6.774;2023-07-02T20:28:50;19.60;77.20
20418;DHT22;10368;51.436;6.774;2023-07-02T20:31:18;19.50;77.50
20418;DHT22;10368;51.436;6.774;2023-07-02T20:33:45;19.40;78.20
20418;DHT22;10368;51.436;6.774;2023-07-02T20:36:14;19.30;78.90
20418;DHT22;10368;51.436;6.774;2023-07-02T20:38:41;19.40;78.90
20418;DHT22;10368;51.436;6.774;2023-07-02T20:43:37;19.20;78.60
20418;DHT22;10368;51.436;6.774;2023-07-02T20:46:10;19.20;79.90
20418;DHT22;10368;51.436;6.774;2023-07-02T20:48:37;19.20;80.00
20418;DHT22;10368;51.436;6.774;2023-07-02T20:51:10;19.20;80.10
20418;DHT22;10368;51.436;6.774;2023-07-02T20:53:37;19.10;80.30
20418;DHT22;10368;51.436;6.774;2023-07-02T20:56:04;19.10;80.50
20418;DHT22;10368;51.436;6.774;2023-07-02T20:58:31;19.10;81.00
20418;DHT22;10368;51.436;6.774;2023-07-02T21:01:05;19.00;81.70
20418;DHT22;10368;51.436;6.774;2023-07-02T21:03:32;19.10;82.00
20418;DHT22;10368;51.436;6.774;2023-07-02T21:06:08;19.00;82.30
20418;DHT22;10368;51.436;6.774;2023-07-02T21:08:35;19.00;83.10
20418;DHT22;10368;51.436;6.774;2023-07-02T21:11:04;19.10;83.40
20418;DHT22;10368;51.436;6.774;2023-07-02T21:13:41;19.10;83.70
20418;DHT22;10368;51.436;6.774;2023-07-02T21:16:10;18.90;84.40
20418;DHT22;10368;51.436;6.774;2023-07-02T21:18:37;18.90;85.20
20418;DHT22;10368;51.436;6.774;2023-07-02T21:21:03;18.90;85.50
20418;DHT22;10368;51.436;6.774;2023-07-02T21:23:33;18.90;85.60
20418;DHT22;10368;51.436;6.774;2023-07-02T21:26:01;18.90;86.80
20418;DHT22;10368;51.436;6.774;2023-07-02T21:28:29;18.90;86.90
20418;DHT22;10368;51.436;6.774;2023-07-02T21:30:56;18.90;86.30
20418;DHT22;10368;51.436;6.774;2023-07-02T21:33:23;18.80;86.20
20418;DHT22;10368;51.436;6.774;2023-07-02T21:35:50;18.80;86.40
20418;DHT22;10368;51.436;6.774;2023-07-02T21:38:18;18.80;87.80
20418;DHT22;10368;51.436;6.774;2023-07-02T21:40:44;18.90;87.40
20418;DHT22;10368;51.436;6.774;2023-07-02T21:43:11;18.80;87.40
20418;DHT22;10368;51.436;6.774;2023-07-02T21:45:38;18.90;87.40
20418;DHT22;10368;51.436;6.774;2023-07-02T21:48:05;18.90;88.60
20418;DHT22;10368;51.436;6.774;2023-07-02T21:50:32;18.70;88.90
20418;DHT22;10368;51.436;6.774;2023-07-02T21:52:59;18.70;89.20
20418;DHT22;10368;51.436;6.774;2023-07-02T21:55:26;18.70;90.00
20418;DHT22;10368;51.436;6.774;2023-07-02T21:57:53;18.80;89.70
20418;DHT22;10368;51.436;6.774;2023-07-02T22:00:20;18.70;90.10
20418;DHT22;10368;51.436;6.774;2023-07-02T22:02:49;18.70;90.20
20418;DHT22;10368;51.436;6.774;2023-07-02T22:05:16;18.60;90.40
20418;DHT22;10368;51.436;6.774;2023-07-02T22:07:44;18.60;90.90
20418;DHT22;10368;51.436;6.774;2023-07-02T22:10:12;18.60;91.10
20418;DHT22;10368;51.436;6.774;2023-07-02T22:12:39;18.50;91.10
20418;DHT22;10368;51.436;6.774;2023-07-02T22:15:06;18.50;91.50
20418;DHT22;10368;51.436;6.774;2023-07-02T22:17:33;18.50;91.90
20418;DHT22;10368;51.436;6.774;2023-07-02T22:20:02;18.40;92.40
20418;DHT22;10368;51.436;6.774;2023-07-02T22:22:38;18.30;93.00
